sensor_id;sensor_type;location;lat;lon;timestamp;P1;durP1;ratioP1;P2;durP2;ratioP2
74229;SDS011;62589;12.568;99.958;2023-05-07T00:00:53;13.25;;;10.60;;
74229;SDS011;62589;12.568;99.958;2023-05-07T00:03:20;13.80;;;10.65;;
74229;SDS011;62589;12.568;99.958;2023-05-07T00:05:47;15.88;;;11.57;;
74229;SDS011;62589;12.568;99.958;2023-05-07T00:08:14;16.05;;;11.85;;
74229;SDS011;62589;12.568;99.958;2023-05-07T00:10:41;12.50;;;10.60;;
74229;SDS011;62589;12.568;99.958;2023-05-07T00:13:07;13.85;;;11.40;;
74229;SDS011;62589;12.568;99.958;2023-05-07T00:15:34;11.68;;;10.45;;
74229;SDS011;62589;12.568;99.958;2023-05-07T00:18:00;14.27;;;10.48;;
74229;SDS011;62589;12.568;99.958;2023-05-07T00:20:26;12.00;;;10.30;;
74229;SDS011;62589;12.568;99.958;2023-05-07T00:22:53;14.85;;;10.57;;
74229;SDS011;62589;12.568;99.958;2023-05-07T00:25:19;13.57;;;10.82;;
74229;SDS011;62589;12.568;99.958;2023-05-07T00:27:46;11.68;;;9.98;;
74229;SDS011;62589;12.568;99.958;2023-05-07T00:30:12;12.25;;;10.50;;
74229;SDS011;62589;12.568;99.958;2023-05-07T00:32:39;12.18;;;10.88;;
74229;SDS011;62589;12.568;99.958;2023-05-07T00:35:07;12.48;;;10.57;;
74229;SDS011;62589;12.568;99.958;2023-05-07T00:37:33;12.02;;;10.65;;
74229;SDS011;62589;12.568;99.958;2023-05-07T00:40:00;12.73;;;11.05;;
74229;SDS011;62589;12.568;99.958;2023-05-07T00:42:30;13.63;;;9.90;;
74229;SDS011;62589;12.568;99.958;2023-05-07T00:44:57;11.02;;;9.75;;
74229;SDS011;62589;12.568;99.958;2023-05-07T00:47:24;11.30;;;10.07;;
74229;SDS011;62589;12.568;99.958;2023-05-07T00:49:51;13.57;;;9.85;;
74229;SDS011;62589;12.568;99.958;2023-05-07T00:52:18;11.57;;;9.82;;
74229;SDS011;62589;12.568;99.958;2023-05-07T00:54:47;11.48;;;9.38;;
74229;SDS011;62589;12.568;99.958;2023-05-07T00:57:13;10.82;;;9.32;;
74229;SDS011;62589;12.568;99.958;2023-05-07T00:59:41;11.00;;;9.52;;
74229;SDS011;62589;12.568;99.958;2023-05-07T01:02:07;14.68;;;10.18;;
74229;SDS011;62589;12.568;99.958;2023-05-07T01:04:34;10.90;;;9.80;;
74229;SDS011;62589;12.568;99.958;2023-05-07T01:07:00;11.43;;;9.15;;
74229;SDS011;62589;12.568;99.958;2023-05-07T01:09:28;10.55;;;8.50;;
74229;SDS011;62589;12.568;99.958;2023-05-07T01:11:55;9.52;;;8.52;;
74229;SDS011;62589;12.568;99.958;2023-05-07T01:14:23;10.60;;;8.80;;
74229;SDS011;62589;12.568;99.958;2023-05-07T01:16:50;11.10;;;8.73;;
74229;SDS011;62589;12.568;99.958;2023-05-07T01:19:17;10.52;;;9.30;;
74229;SDS011;62589;12.568;99.958;2023-05-07T01:21:45;11.43;;;8.63;;
74229;SDS011;62589;12.568;99.958;2023-05-07T01:24:13;9.23;;;8.32;;
74229;SDS011;62589;12.568;99.958;2023-05-07T01:26:41;10.00;;;9.00;;
74229;SDS011;62589;12.568;99.958;2023-05-07T01:29:09;10.95;;;8.68;;
74229;SDS011;62589;12.568;99.958;2023-05-07T01:31:36;9.88;;;8.40;;
74229;SDS011;62589;12.568;99.958;2023-05-07T01:34:03;9.43;;;8.43;;
74229;SDS011;62589;12.568;99.958;2023-05-07T01:36:30;8.45;;;7.65;;
74229;SDS011;62589;12.568;99.958;2023-05-07T01:38:58;9.00;;;7.78;;
74229;SDS011;62589;12.568;99.958;2023-05-07T01:41:25;9.80;;;8.30;;
74229;SDS011;62589;12.568;99.958;2023-05-07T01:43:52;10.30;;;8.15;;
74229;SDS011;62589;12.568;99.958;2023-05-07T01:46:20;9.60;;;7.72;;
74229;SDS011;62589;12.568;99.958;2023-05-07T01:48:47;9.60;;;8.00;;
74229;SDS011;62589;12.568;99.958;2023-05-07T01:51:15;8.93;;;8.02;;
74229;SDS011;62589;12.568;99.958;2023-05-07T01:53:41;11.90;;;7.85;;
74229;SDS011;62589;12.568;99.958;2023-05-07T01:56:09;9.23;;;7.72;;
74229;SDS011;62589;12.568;99.958;2023-05-07T01:58:35;9.07;;;7.40;;
74229;SDS011;62589;12.568;99.958;2023-05-07T02:01:01;8.23;;;7.43;;
74229;SDS011;62589;12.568;99.958;2023-05-07T02:03:28;9.40;;;7.03;;
74229;SDS011;62589;12.568;99.958;2023-05-07T02:05:54;11.02;;;7.55;;
74229;SDS011;62589;12.568;99.958;2023-05-07T02:08:21;9.18;;;7.70;;
74229;SDS011;62589;12.568;99.958;2023-05-07T02:10:47;8.40;;;7.53;;
74229;SDS011;62589;12.568;99.958;2023-05-07T02:14:04;11.20;;;7.22;;
74229;SDS011;62589;12.568;99.958;2023-05-07T02:16:31;8.18;;;7.25;;
74229;SDS011;62589;12.568;99.958;2023-05-07T02:18:58;8.07;;;6.80;;
74229;SDS011;62589;12.568;99.958;2023-05-07T02:21:24;11.18;;;7.88;;
74229;SDS011;62589;12.568;99.958;2023-05-07T02:23:51;9.77;;;7.90;;
74229;SDS011;62589;12.568;99.958;2023-05-07T02:26:17;12.10;;;7.82;;
74229;SDS011;62589;12.568;99.958;2023-05-07T02:28:44;12.80;;;7.93;;
74229;SDS011;62589;12.568;99.958;2023-05-07T02:31:10;9.73;;;7.60;;
74229;SDS011;62589;12.568;99.958;2023-05-07T02:33:37;8.50;;;7.05;;
74229;SDS011;62589;12.568;99.958;2023-05-07T02:36:07;8.88;;;7.10;;
74229;SDS011;62589;12.568;99.958;2023-05-07T02:38:38;10.25;;;7.50;;
74229;SDS011;62589;12.568;99.958;2023-05-07T02:41:04;9.93;;;6.65;;
74229;SDS011;62589;12.568;99.958;2023-05-07T02:43:31;11.02;;;6.38;;
74229;SDS011;62589;12.568;99.958;2023-05-07T02:46:03;7.75;;;6.93;;
74229;SDS011;62589;12.568;99.958;2023-05-07T02:48:31;6.93;;;6.22;;
74229;SDS011;62589;12.568;99.958;2023-05-07T02:50:58;8.32;;;6.68;;
74229;SDS011;62589;12.568;99.958;2023-05-07T02:53:26;7.18;;;6.45;;
74229;SDS011;62589;12.568;99.958;2023-05-07T02:55:56;6.70;;;6.07;;
74229;SDS011;62589;12.568;99.958;2023-05-07T02:58:24;7.97;;;6.13;;
74229;SDS011;62589;12.568;99.958;2023-05-07T03:00:51;8.43;;;6.03;;
74229;SDS011;62589;12.568;99.958;2023-05-07T03:03:20;7.20;;;6.30;;
74229;SDS011;62589;12.568;99.958;2023-05-07T03:05:46;7.50;;;6.07;;
74229;SDS011;62589;12.568;99.958;2023-05-07T03:08:13;7.18;;;6.03;;
74229;SDS011;62589;12.568;99.958;2023-05-07T03:10:39;6.90;;;5.80;;
74229;SDS011;62589;12.568;99.958;2023-05-07T03:13:06;7.00;;;6.30;;
74229;SDS011;62589;12.568;99.958;2023-05-07T03:15:32;8.57;;;6.72;;
74229;SDS011;62589;12.568;99.958;2023-05-07T03:17:59;12.27;;;8.60;;
74229;SDS011;62589;12.568;99.958;2023-05-07T03:20:25;9.45;;;7.63;;
74229;SDS011;62589;12.568;99.958;2023-05-07T03:22:51;8.50;;;7.57;;
74229;SDS011;62589;12.568;99.958;2023-05-07T03:25:18;8.95;;;7.10;;
74229;SDS011;62589;12.568;99.958;2023-05-07T03:27:44;8.73;;;7.10;;
74229;SDS011;62589;12.568;99.958;2023-05-07T03:30:11;8.77;;;7.75;;
74229;SDS011;62589;12.568;99.958;2023-05-07T03:32:38;8.80;;;6.97;;
74229;SDS011;62589;12.568;99.958;2023-05-07T03:35:05;9.60;;;7.60;;
74229;SDS011;62589;12.568;99.958;2023-05-07T03:37:32;8.25;;;7.43;;
74229;SDS011;62589;12.568;99.958;2023-05-07T03:39:58;9.35;;;6.93;;
74229;SDS011;62589;12.568;99.958;2023-05-07T03:42:25;10.38;;;7.05;;
74229;SDS011;62589;12.568;99.958;2023-05-07T03:44:51;8.70;;;7.57;;
74229;SDS011;62589;12.568;99.958;2023-05-07T03:47:18;8.57;;;7.43;;
74229;SDS011;62589;12.568;99.958;2023-05-07T03:49:44;9.18;;;7.97;;
74229;SDS011;62589;12.568;99.958;2023-05-07T03:52:10;8.93;;;8.00;;
74229;SDS011;62589;12.568;99.958;2023-05-07T03:54:37;10.43;;;8.15;;
74229;SDS011;62589;12.568;99.958;2023-05-07T03:57:03;10.52;;;8.15;;
74229;SDS011;62589;12.568;99.958;2023-05-07T03:59:30;12.27;;;8.43;;
74229;SDS011;62589;12.568;99.958;2023-05-07T04:01:56;11.25;;;8.70;;
74229;SDS011;62589;12.568;99.958;2023-05-07T04:04:22;9.88;;;8.73;;
74229;SDS011;62589;12.568;99.958;2023-05-07T04:06:49;11.48;;;8.98;;
74229;SDS011;62589;12.568;99.958;2023-05-07T04:09:16;10.40;;;8.15;;
74229;SDS011;62589;12.568;99.958;2023-05-07T04:11:43;9.65;;;8.65;;
74229;SDS011;62589;12.568;99.958;2023-05-07T04:14:09;17.90;;;10.30;;
74229;SDS011;62589;12.568;99.958;2023-05-07T04:16:36;10.93;;;9.00;;
74229;SDS011;62589;12.568;99.958;2023-05-07T04:19:02;12.68;;;9.07;;
74229;SDS011;62589;12.568;99.958;2023-05-07T04:21:29;9.95;;;8.90;;
74229;SDS011;62589;12.568;99.958;2023-05-07T04:23:55;13.07;;;9.02;;
74229;SDS011;62589;12.568;99.958;2023-05-07T04:26:22;13.02;;;9.45;;
74229;SDS011;62589;12.568;99.958;2023-05-07T04:28:50;12.88;;;9.38;;
74229;SDS011;62589;12.568;99.958;2023-05-07T04:31:17;12.52;;;8.98;;
74229;SDS011;62589;12.568;99.958;2023-05-07T04:33:43;14.85;;;8.45;;
74229;SDS011;62589;12.568;99.958;2023-05-07T04:36:10;10.68;;;8.63;;
74229;SDS011;62589;12.568;99.958;2023-05-07T04:38:36;11.35;;;8.07;;
74229;SDS011;62589;12.568;99.958;2023-05-07T04:41:04;10.75;;;8.90;;
74229;SDS011;62589;12.568;99.958;2023-05-07T04:43:31;11.60;;;8.43;;
74229;SDS011;62589;12.568;99.958;2023-05-07T04:45:58;11.57;;;9.00;;
74229;SDS011;62589;12.568;99.958;2023-05-07T04:48:25;10.13;;;8.57;;
74229;SDS011;62589;12.568;99.958;2023-05-07T04:50:51;10.57;;;8.10;;
74229;SDS011;62589;12.568;99.958;2023-05-07T04:53:18;11.20;;;8.77;;
74229;SDS011;62589;12.568;99.958;2023-05-07T04:55:45;10.55;;;8.05;;
74229;SDS011;62589;12.568;99.958;2023-05-07T04:58:11;9.55;;;8.60;;
74229;SDS011;62589;12.568;99.958;2023-05-07T05:00:38;9.80;;;8.73;;
74229;SDS011;62589;12.568;99.958;2023-05-07T05:03:08;9.57;;;8.25;;
74229;SDS011;62589;12.568;99.958;2023-05-07T05:05:35;9.93;;;8.93;;
74229;SDS011;62589;12.568;99.958;2023-05-07T05:08:01;10.48;;;8.20;;
74229;SDS011;62589;12.568;99.958;2023-05-07T05:10:27;10.13;;;8.13;;
74229;SDS011;62589;12.568;99.958;2023-05-07T05:12:54;12.52;;;9.18;;
74229;SDS011;62589;12.568;99.958;2023-05-07T05:15:20;10.32;;;8.43;;
74229;SDS011;62589;12.568;99.958;2023-05-07T05:17:47;10.45;;;8.40;;
74229;SDS011;62589;12.568;99.958;2023-05-07T05:20:13;11.18;;;7.75;;
74229;SDS011;62589;12.568;99.958;2023-05-07T05:22:41;10.00;;;8.40;;
74229;SDS011;62589;12.568;99.958;2023-05-07T05:25:07;9.93;;;8.43;;
74229;SDS011;62589;12.568;99.958;2023-05-07T05:27:34;10.20;;;8.38;;
74229;SDS011;62589;12.568;99.958;2023-05-07T05:30:01;10.38;;;8.93;;
74229;SDS011;62589;12.568;99.958;2023-05-07T05:32:27;10.05;;;9.05;;
74229;SDS011;62589;12.568;99.958;2023-05-07T05:34:54;11.18;;;8.65;;
74229;SDS011;62589;12.568;99.958;2023-05-07T05:37:21;11.05;;;8.70;;
74229;SDS011;62589;12.568;99.958;2023-05-07T05:39:47;11.93;;;7.90;;
74229;SDS011;62589;12.568;99.958;2023-05-07T05:42:13;10.65;;;9.13;;
74229;SDS011;62589;12.568;99.958;2023-05-07T05:44:40;11.38;;;8.25;;
74229;SDS011;62589;12.568;99.958;2023-05-07T05:47:06;12.38;;;8.55;;
74229;SDS011;62589;12.568;99.958;2023-05-07T05:49:33;13.45;;;8.38;;
74229;SDS011;62589;12.568;99.958;2023-05-07T05:51:59;10.85;;;8.57;;
74229;SDS011;62589;12.568;99.958;2023-05-07T05:54:26;11.18;;;8.60;;
74229;SDS011;62589;12.568;99.958;2023-05-07T05:56:52;9.10;;;8.05;;
74229;SDS011;62589;12.568;99.958;2023-05-07T05:59:19;11.25;;;8.55;;
74229;SDS011;62589;12.568;99.958;2023-05-07T06:01:45;9.45;;;8.30;;
74229;SDS011;62589;12.568;99.958;2023-05-07T06:04:12;10.52;;;8.63;;
74229;SDS011;62589;12.568;99.958;2023-05-07T06:06:38;10.85;;;8.82;;
74229;SDS011;62589;12.568;99.958;2023-05-07T06:09:05;9.02;;;8.13;;
74229;SDS011;62589;12.568;99.958;2023-05-07T06:11:31;10.55;;;8.15;;
74229;SDS011;62589;12.568;99.958;2023-05-07T06:13:57;9.70;;;8.70;;
74229;SDS011;62589;12.568;99.958;2023-05-07T06:16:24;11.68;;;8.40;;
74229;SDS011;62589;12.568;99.958;2023-05-07T06:18:51;9.45;;;7.72;;
74229;SDS011;62589;12.568;99.958;2023-05-07T06:21:17;9.07;;;7.88;;
74229;SDS011;62589;12.568;99.958;2023-05-07T06:23:43;9.48;;;7.55;;
74229;SDS011;62589;12.568;99.958;2023-05-07T06:26:10;13.55;;;8.63;;
74229;SDS011;62589;12.568;99.958;2023-05-07T06:28:36;10.57;;;7.95;;
74229;SDS011;62589;12.568;99.958;2023-05-07T06:31:12;9.48;;;7.88;;
74229;SDS011;62589;12.568;99.958;2023-05-07T06:33:43;9.80;;;7.63;;
74229;SDS011;62589;12.568;99.958;2023-05-07T06:36:10;12.13;;;7.65;;
74229;SDS011;62589;12.568;99.958;2023-05-07T06:38:37;9.98;;;8.27;;
74229;SDS011;62589;12.568;99.958;2023-05-07T06:41:03;9.55;;;7.90;;
74229;SDS011;62589;12.568;99.958;2023-05-07T06:43:31;11.98;;;7.70;;
74229;SDS011;62589;12.568;99.958;2023-05-07T06:45:58;10.20;;;7.40;;
74229;SDS011;62589;12.568;99.958;2023-05-07T06:48:24;8.82;;;7.90;;
74229;SDS011;62589;12.568;99.958;2023-05-07T06:50:51;8.45;;;6.90;;
74229;SDS011;62589;12.568;99.958;2023-05-07T06:53:17;9.27;;;7.70;;
74229;SDS011;62589;12.568;99.958;2023-05-07T06:55:43;9.30;;;7.82;;
74229;SDS011;62589;12.568;99.958;2023-05-07T06:58:10;8.38;;;7.28;;
74229;SDS011;62589;12.568;99.958;2023-05-07T07:00:36;8.57;;;7.57;;
74229;SDS011;62589;12.568;99.958;2023-05-07T07:03:03;10.23;;;7.55;;
74229;SDS011;62589;12.568;99.958;2023-05-07T07:05:29;11.18;;;8.27;;
74229;SDS011;62589;12.568;99.958;2023-05-07T07:07:56;11.90;;;8.27;;
74229;SDS011;62589;12.568;99.958;2023-05-07T07:10:22;10.05;;;7.78;;
74229;SDS011;62589;12.568;99.958;2023-05-07T07:12:49;10.85;;;8.15;;
74229;SDS011;62589;12.568;99.958;2023-05-07T07:15:17;10.05;;;7.97;;
74229;SDS011;62589;12.568;99.958;2023-05-07T07:17:46;8.77;;;7.68;;
74229;SDS011;62589;12.568;99.958;2023-05-07T07:20:13;10.02;;;8.35;;
74229;SDS011;62589;12.568;99.958;2023-05-07T07:22:39;9.15;;;8.10;;
74229;SDS011;62589;12.568;99.958;2023-05-07T07:25:06;9.25;;;7.95;;
74229;SDS011;62589;12.568;99.958;2023-05-07T07:27:32;10.75;;;8.30;;
74229;SDS011;62589;12.568;99.958;2023-05-07T07:29:59;9.77;;;7.65;;
74229;SDS011;62589;12.568;99.958;2023-05-07T07:32:25;10.65;;;7.72;;
74229;SDS011;62589;12.568;99.958;2023-05-07T07:34:52;9.13;;;7.55;;
74229;SDS011;62589;12.568;99.958;2023-05-07T07:37:18;8.57;;;7.70;;
74229;SDS011;62589;12.568;99.958;2023-05-07T07:39:44;9.30;;;8.10;;
74229;SDS011;62589;12.568;99.958;2023-05-07T07:42:11;9.40;;;7.82;;
74229;SDS011;62589;12.568;99.958;2023-05-07T07:44:37;13.52;;;8.55;;
74229;SDS011;62589;12.568;99.958;2023-05-07T07:47:05;10.93;;;7.82;;
74229;SDS011;62589;12.568;99.958;2023-05-07T07:49:32;13.90;;;8.40;;
74229;SDS011;62589;12.568;99.958;2023-05-07T07:51:58;9.77;;;8.18;;
74229;SDS011;62589;12.568;99.958;2023-05-07T07:54:25;10.48;;;8.32;;
74229;SDS011;62589;12.568;99.958;2023-05-07T07:56:51;9.70;;;8.63;;
74229;SDS011;62589;12.568;99.958;2023-05-07T07:59:18;9.60;;;8.38;;
74229;SDS011;62589;12.568;99.958;2023-05-07T08:01:45;9.55;;;8.55;;
74229;SDS011;62589;12.568;99.958;2023-05-07T08:04:13;10.52;;;8.75;;
74229;SDS011;62589;12.568;99.958;2023-05-07T08:06:40;10.13;;;9.10;;
74229;SDS011;62589;12.568;99.958;2023-05-07T08:09:06;11.10;;;8.95;;
74229;SDS011;62589;12.568;99.958;2023-05-07T08:11:33;10.35;;;9.27;;
74229;SDS011;62589;12.568;99.958;2023-05-07T08:14:00;12.10;;;9.00;;
74229;SDS011;62589;12.568;99.958;2023-05-07T08:16:26;11.98;;;9.32;;
74229;SDS011;62589;12.568;99.958;2023-05-07T08:18:53;12.70;;;9.20;;
74229;SDS011;62589;12.568;99.958;2023-05-07T08:21:20;11.45;;;9.35;;
74229;SDS011;62589;12.568;99.958;2023-05-07T08:23:46;11.70;;;9.70;;
74229;SDS011;62589;12.568;99.958;2023-05-07T08:26:12;10.55;;;9.30;;
74229;SDS011;62589;12.568;99.958;2023-05-07T08:28:39;13.13;;;9.50;;
74229;SDS011;62589;12.568;99.958;2023-05-07T08:31:05;12.95;;;9.55;;
74229;SDS011;62589;12.568;99.958;2023-05-07T08:33:32;14.73;;;9.40;;
74229;SDS011;62589;12.568;99.958;2023-05-07T08:35:58;11.13;;;9.02;;
74229;SDS011;62589;12.568;99.958;2023-05-07T08:38:25;10.48;;;9.48;;
74229;SDS011;62589;12.568;99.958;2023-05-07T08:40:51;11.68;;;9.25;;
74229;SDS011;62589;12.568;99.958;2023-05-07T08:43:18;12.30;;;9.23;;
74229;SDS011;62589;12.568;99.958;2023-05-07T08:45:47;10.07;;;9.05;;
74229;SDS011;62589;12.568;99.958;2023-05-07T08:48:21;10.98;;;9.30;;
74229;SDS011;62589;12.568;99.958;2023-05-07T08:50:50;11.13;;;9.05;;
74229;SDS011;62589;12.568;99.958;2023-05-07T08:53:17;11.60;;;9.05;;
74229;SDS011;62589;12.568;99.958;2023-05-07T08:55:45;10.55;;;9.40;;
74229;SDS011;62589;12.568;99.958;2023-05-07T08:58:13;10.18;;;8.05;;
74229;SDS011;62589;12.568;99.958;2023-05-07T09:00:39;10.55;;;8.88;;
74229;SDS011;62589;12.568;99.958;2023-05-07T09:03:07;11.50;;;8.65;;
74229;SDS011;62589;12.568;99.958;2023-05-07T09:05:33;11.82;;;9.35;;
74229;SDS011;62589;12.568;99.958;2023-05-07T09:08:05;11.60;;;9.05;;
74229;SDS011;62589;12.568;99.958;2023-05-07T09:10:33;11.93;;;10.15;;
74229;SDS011;62589;12.568;99.958;2023-05-07T09:13:00;9.85;;;8.77;;
74229;SDS011;62589;12.568;99.958;2023-05-07T09:15:27;10.43;;;8.98;;
74229;SDS011;62589;12.568;99.958;2023-05-07T09:17:54;10.52;;;9.25;;
74229;SDS011;62589;12.568;99.958;2023-05-07T09:20:26;10.47;;;9.37;;
74229;SDS011;62589;12.568;99.958;2023-05-07T09:22:54;10.25;;;9.18;;
74229;SDS011;62589;12.568;99.958;2023-05-07T09:25:28;11.38;;;9.02;;
74229;SDS011;62589;12.568;99.958;2023-05-07T09:27:56;10.70;;;9.48;;
74229;SDS011;62589;12.568;99.958;2023-05-07T09:30:22;10.70;;;9.13;;
74229;SDS011;62589;12.568;99.958;2023-05-07T09:32:53;11.95;;;9.10;;
74229;SDS011;62589;12.568;99.958;2023-05-07T09:35:19;15.43;;;10.15;;
74229;SDS011;62589;12.568;99.958;2023-05-07T09:37:55;12.50;;;9.88;;
74229;SDS011;62589;12.568;99.958;2023-05-07T09:40:24;9.88;;;8.88;;
74229;SDS011;62589;12.568;99.958;2023-05-07T09:42:52;10.93;;;8.57;;
74229;SDS011;62589;12.568;99.958;2023-05-07T09:45:22;12.00;;;9.40;;
74229;SDS011;62589;12.568;99.958;2023-05-07T09:47:55;9.77;;;8.70;;
74229;SDS011;62589;12.568;99.958;2023-05-07T09:50:26;8.95;;;8.07;;
74229;SDS011;62589;12.568;99.958;2023-05-07T09:52:54;9.85;;;8.50;;
74229;SDS011;62589;12.568;99.958;2023-05-07T09:55:22;9.63;;;8.50;;
74229;SDS011;62589;12.568;99.958;2023-05-07T09:57:52;11.90;;;8.93;;
74229;SDS011;62589;12.568;99.958;2023-05-07T10:00:21;9.80;;;8.40;;
74229;SDS011;62589;12.568;99.958;2023-05-07T10:02:49;11.20;;;8.25;;
74229;SDS011;62589;12.568;99.958;2023-05-07T10:05:23;10.98;;;8.52;;
74229;SDS011;62589;12.568;99.958;2023-05-07T10:07:51;10.05;;;8.32;;
74229;SDS011;62589;12.568;99.958;2023-05-07T10:10:20;10.25;;;8.70;;
74229;SDS011;62589;12.568;99.958;2023-05-07T10:12:47;8.93;;;8.02;;
74229;SDS011;62589;12.568;99.958;2023-05-07T10:15:15;9.80;;;8.80;;
74229;SDS011;62589;12.568;99.958;2023-05-07T10:17:42;10.55;;;8.60;;
74229;SDS011;62589;12.568;99.958;2023-05-07T10:20:08;9.65;;;7.85;;
74229;SDS011;62589;12.568;99.958;2023-05-07T10:22:41;10.52;;;8.18;;
74229;SDS011;62589;12.568;99.958;2023-05-07T10:25:29;9.38;;;7.70;;
74229;SDS011;62589;12.568;99.958;2023-05-07T10:28:04;9.00;;;8.07;;
74229;SDS011;62589;12.568;99.958;2023-05-07T10:30:53;8.55;;;7.55;;
74229;SDS011;62589;12.568;99.958;2023-05-07T10:33:31;9.70;;;7.40;;
74229;SDS011;62589;12.568;99.958;2023-05-07T10:36:00;10.80;;;8.00;;
74229;SDS011;62589;12.568;99.958;2023-05-07T10:38:29;9.07;;;7.85;;
74229;SDS011;62589;12.568;99.958;2023-05-07T10:40:56;9.38;;;7.78;;
74229;SDS011;62589;12.568;99.958;2023-05-07T10:43:23;9.50;;;7.32;;
74229;SDS011;62589;12.568;99.958;2023-05-07T10:51:37;11.20;;;7.28;;
74229;SDS011;62589;12.568;99.958;2023-05-07T10:56:51;8.77;;;7.85;;
74229;SDS011;62589;12.568;99.958;2023-05-07T11:02:07;12.18;;;8.85;;
74229;SDS011;62589;12.568;99.958;2023-05-07T11:04:35;9.50;;;7.40;;
74229;SDS011;62589;12.568;99.958;2023-05-07T11:09:55;7.88;;;7.07;;
74229;SDS011;62589;12.568;99.958;2023-05-07T11:15:14;11.13;;;8.20;;
74229;SDS011;62589;12.568;99.958;2023-05-07T11:26:12;11.65;;;7.97;;
74229;SDS011;62589;12.568;99.958;2023-05-07T11:28:39;10.50;;;7.50;;
74229;SDS011;62589;12.568;99.958;2023-05-07T11:31:08;9.50;;;8.10;;
74229;SDS011;62589;12.568;99.958;2023-05-07T11:33:36;10.45;;;8.40;;
74229;SDS011;62589;12.568;99.958;2023-05-07T11:36:03;9.82;;;7.82;;
74229;SDS011;62589;12.568;99.958;2023-05-07T11:38:30;10.02;;;8.32;;
74229;SDS011;62589;12.568;99.958;2023-05-07T11:41:01;9.05;;;7.25;;
74229;SDS011;62589;12.568;99.958;2023-05-07T11:43:29;8.98;;;7.32;;
74229;SDS011;62589;12.568;99.958;2023-05-07T11:46:04;11.70;;;8.13;;
74229;SDS011;62589;12.568;99.958;2023-05-07T11:48:35;9.80;;;8.45;;
74229;SDS011;62589;12.568;99.958;2023-05-07T11:51:03;12.18;;;8.65;;
74229;SDS011;62589;12.568;99.958;2023-05-07T11:53:35;11.30;;;8.75;;
74229;SDS011;62589;12.568;99.958;2023-05-07T11:56:07;12.65;;;10.07;;
74229;SDS011;62589;12.568;99.958;2023-05-07T11:58:35;12.23;;;8.87;;
74229;SDS011;62589;12.568;99.958;2023-05-07T12:01:02;9.90;;;8.88;;
74229;SDS011;62589;12.568;99.958;2023-05-07T12:03:29;11.90;;;8.82;;
74229;SDS011;62589;12.568;99.958;2023-05-07T12:05:55;12.57;;;8.82;;
74229;SDS011;62589;12.568;99.958;2023-05-07T12:08:22;42.17;;;22.10;;
74229;SDS011;62589;12.568;99.958;2023-05-07T12:10:49;28.27;;;17.42;;
74229;SDS011;62589;12.568;99.958;2023-05-07T12:13:17;21.45;;;13.98;;
74229;SDS011;62589;12.568;99.958;2023-05-07T12:15:44;20.20;;;12.63;;
74229;SDS011;62589;12.568;99.958;2023-05-07T12:18:13;20.52;;;12.27;;
74229;SDS011;62589;12.568;99.958;2023-05-07T12:20:41;14.95;;;11.40;;
74229;SDS011;62589;12.568;99.958;2023-05-07T12:23:07;16.08;;;11.32;;
74229;SDS011;62589;12.568;99.958;2023-05-07T12:25:35;14.98;;;10.48;;
74229;SDS011;62589;12.568;99.958;2023-05-07T12:28:02;17.52;;;10.57;;
74229;SDS011;62589;12.568;99.958;2023-05-07T12:30:32;14.75;;;9.75;;
74229;SDS011;62589;12.568;99.958;2023-05-07T12:33:03;14.32;;;10.82;;
74229;SDS011;62589;12.568;99.958;2023-05-07T12:35:30;11.50;;;9.88;;
74229;SDS011;62589;12.568;99.958;2023-05-07T12:37:58;12.30;;;9.85;;
74229;SDS011;62589;12.568;99.958;2023-05-07T12:43:16;12.38;;;9.52;;
74229;SDS011;62589;12.568;99.958;2023-05-07T12:45:47;11.65;;;8.90;;
74229;SDS011;62589;12.568;99.958;2023-05-07T12:48:15;12.32;;;9.65;;
74229;SDS011;62589;12.568;99.958;2023-05-07T12:50:42;11.95;;;9.18;;
74229;SDS011;62589;12.568;99.958;2023-05-07T12:53:11;11.13;;;9.02;;
74229;SDS011;62589;12.568;99.958;2023-05-07T12:55:45;12.82;;;9.32;;
74229;SDS011;62589;12.568;99.958;2023-05-07T13:00:52;10.93;;;8.93;;
74229;SDS011;62589;12.568;99.958;2023-05-07T13:03:38;11.15;;;8.95;;
74229;SDS011;62589;12.568;99.958;2023-05-07T13:06:08;14.02;;;9.50;;
74229;SDS011;62589;12.568;99.958;2023-05-07T13:08:36;16.15;;;10.95;;
74229;SDS011;62589;12.568;99.958;2023-05-07T13:11:06;14.35;;;10.88;;
74229;SDS011;62589;12.568;99.958;2023-05-07T13:13:34;13.65;;;9.95;;
74229;SDS011;62589;12.568;99.958;2023-05-07T13:16:03;14.88;;;10.75;;
74229;SDS011;62589;12.568;99.958;2023-05-07T13:18:30;16.85;;;10.23;;
74229;SDS011;62589;12.568;99.958;2023-05-07T13:20:58;11.75;;;10.45;;
74229;SDS011;62589;12.568;99.958;2023-05-07T13:23:26;14.35;;;11.15;;
74229;SDS011;62589;12.568;99.958;2023-05-07T13:25:53;13.43;;;10.32;;
74229;SDS011;62589;12.568;99.958;2023-05-07T13:28:21;13.38;;;10.10;;
74229;SDS011;62589;12.568;99.958;2023-05-07T13:30:49;12.30;;;10.25;;
74229;SDS011;62589;12.568;99.958;2023-05-07T13:33:17;13.45;;;10.77;;
74229;SDS011;62589;12.568;99.958;2023-05-07T13:35:44;12.52;;;9.98;;
74229;SDS011;62589;12.568;99.958;2023-05-07T13:38:10;15.52;;;10.90;;
74229;SDS011;62589;12.568;99.958;2023-05-07T13:40:37;11.90;;;9.77;;
74229;SDS011;62589;12.568;99.958;2023-05-07T13:43:05;16.88;;;10.10;;
74229;SDS011;62589;12.568;99.958;2023-05-07T13:45:31;11.65;;;9.63;;
74229;SDS011;62589;12.568;99.958;2023-05-07T13:47:58;12.57;;;9.18;;
74229;SDS011;62589;12.568;99.958;2023-05-07T13:50:24;11.93;;;9.90;;
74229;SDS011;62589;12.568;99.958;2023-05-07T13:52:53;13.75;;;9.85;;
74229;SDS011;62589;12.568;99.958;2023-05-07T13:55:20;12.43;;;9.73;;
74229;SDS011;62589;12.568;99.958;2023-05-07T13:57:54;13.02;;;9.98;;
74229;SDS011;62589;12.568;99.958;2023-05-07T14:00:22;11.45;;;9.70;;
74229;SDS011;62589;12.568;99.958;2023-05-07T14:02:50;12.35;;;9.25;;
74229;SDS011;62589;12.568;99.958;2023-05-07T14:05:17;12.40;;;9.40;;
74229;SDS011;62589;12.568;99.958;2023-05-07T14:07:44;13.00;;;8.98;;
74229;SDS011;62589;12.568;99.958;2023-05-07T14:10:10;11.00;;;9.52;;
74229;SDS011;62589;12.568;99.958;2023-05-07T14:12:38;13.48;;;9.02;;
74229;SDS011;62589;12.568;99.958;2023-05-07T14:15:04;12.85;;;8.45;;
74229;SDS011;62589;12.568;99.958;2023-05-07T14:17:31;10.80;;;8.45;;
74229;SDS011;62589;12.568;99.958;2023-05-07T14:19:58;13.98;;;9.10;;
74229;SDS011;62589;12.568;99.958;2023-05-07T14:22:24;9.27;;;7.93;;
74229;SDS011;62589;12.568;99.958;2023-05-07T14:24:50;12.75;;;9.10;;
74229;SDS011;62589;12.568;99.958;2023-05-07T14:27:17;11.13;;;8.52;;
74229;SDS011;62589;12.568;99.958;2023-05-07T14:29:43;10.77;;;7.57;;
74229;SDS011;62589;12.568;99.958;2023-05-07T14:32:10;10.93;;;8.45;;
74229;SDS011;62589;12.568;99.958;2023-05-07T14:34:37;10.32;;;8.38;;
74229;SDS011;62589;12.568;99.958;2023-05-07T14:37:04;11.25;;;8.48;;
74229;SDS011;62589;12.568;99.958;2023-05-07T14:39:30;14.63;;;8.70;;
74229;SDS011;62589;12.568;99.958;2023-05-07T14:41:56;12.32;;;8.95;;
74229;SDS011;62589;12.568;99.958;2023-05-07T14:44:23;10.05;;;8.40;;
74229;SDS011;62589;12.568;99.958;2023-05-07T14:46:49;10.70;;;8.75;;
74229;SDS011;62589;12.568;99.958;2023-05-07T14:49:16;12.82;;;8.45;;
74229;SDS011;62589;12.568;99.958;2023-05-07T14:51:43;10.43;;;8.77;;
74229;SDS011;62589;12.568;99.958;2023-05-07T14:54:10;11.32;;;8.88;;
74229;SDS011;62589;12.568;99.958;2023-05-07T14:56:37;12.98;;;8.77;;